Time;durP1;ratioP1;P1;durP2;ratioP2;P2;SDS_P1;SDS_P2;PMS_P1;PMS_P2;Temp;Humidity;BMP_temperature;BMP_pressure;BME280_temperature;BME280_humidity;BME280_pressure;Samples;Min_cycle;Max_cycle;Signal;HPM_P1;HPM_P2
2023/10/05 00:02:08;;;;;;;14.60;4.50;;;13.60;99.90;;;;;;5075690;28;20403;-47
2023/10/05 00:04:47;;;;;;;11.27;4.10;;;13.70;99.90;;;;;;5075678;28;20500;-47
2023/10/05 00:07:19;;;;;;;14.50;4.00;;;13.70;99.90;;;;;;5075780;28;20462;-47
2023/10/05 00:09:45;;;;;;;12.60;4.40;;;13.70;99.90;;;;;;5075748;28;20430;-49
2023/10/05 00:12:18;;;;;;;11.20;3.67;;;13.70;99.90;;;;;;5075693;28;20765;-48
2023/10/05 00:14:48;;;;;;;11.13;4.13;;;13.80;99.90;;;;;;5075817;28;20253;-47
2023/10/05 00:17:17;;;;;;;12.47;3.70;;;13.80;99.90;;;;;;5075961;28;20420;-48
2023/10/05 00:19:43;;;;;;;7.00;3.67;;;13.80;99.90;;;;;;5075291;28;20428;-47
2023/10/05 00:22:09;;;;;;;12.43;4.10;;;13.80;99.90;;;;;;5075401;28;20425;-47
2023/10/05 00:24:35;;;;;;;10.67;3.40;;;13.80;99.90;;;;;;5074960;28;20247;-47
2023/10/05 00:27:09;;;;;;;10.57;3.53;;;13.90;99.90;;;;;;5074659;28;20190;-48
2023/10/05 00:29:43;;;;;;;9.30;3.30;;;13.90;99.90;;;;;;5075249;28;20884;-47
2023/10/05 00:32:26;;;;;;;11.80;3.70;;;13.90;99.90;;;;;;5075394;28;20419;-47
2023/10/05 00:34:55;;;;;;;10.80;3.57;;;13.80;99.90;;;;;;5075220;28;20412;-47
2023/10/05 00:37:22;;;;;;;9.43;3.53;;;13.80;99.90;;;;;;5075463;28;20415;-47
2023/10/05 00:39:49;;;;;;;14.77;3.60;;;13.80;99.90;;;;;;5075213;28;20412;-47
2023/10/05 00:42:15;;;;;;;15.83;3.27;;;13.80;99.90;;;;;;5075065;28;20438;-47
2023/10/05 00:44:42;;;;;;;11.43;3.17;;;13.90;99.90;;;;;;5075110;28;20408;-47
2023/10/05 00:47:12;;;;;;;14.60;3.97;;;13.90;99.90;;;;;;5075183;28;20844;-47
2023/10/05 00:49:45;;;;;;;8.47;3.13;;;13.90;99.90;;;;;;5075286;28;20418;-47
2023/10/05 00:52:18;;;;;;;12.83;3.70;;;13.90;99.90;;;;;;5075431;28;20416;-47
2023/10/05 00:54:50;;;;;;;10.13;3.37;;;13.90;99.90;;;;;;5074914;28;20414;-47
2023/10/05 00:57:19;;;;;;;9.40;2.93;;;13.90;99.90;;;;;;5075053;28;20416;-47
2023/10/05 00:59:47;;;;;;;7.27;3.40;;;13.90;99.90;;;;;;5074530;28;20443;-48
2023/10/05 01:02:21;;;;;;;8.23;3.20;;;13.80;99.90;;;;;;5074757;28;20428;-48
2023/10/05 01:07:28;;;;;;;7.03;2.60;;;13.80;99.90;;;;;;5074336;28;20780;-47
2023/10/05 01:12:38;;;;;;;11.90;3.23;;;13.90;99.90;;;;;;5074904;28;20401;-47
2023/10/05 01:15:10;;;;;;;10.43;3.10;;;13.80;99.90;;;;;;5074466;28;20420;-47
2023/10/05 01:17:36;;;;;;;10.43;3.23;;;13.80;99.90;;;;;;5074464;28;20466;-48
2023/10/05 01:20:13;;;;;;;16.07;3.80;;;13.90;99.90;;;;;;5074317;28;20415;-47
2023/10/05 01:22:39;;;;;;;14.90;4.30;;;13.80;99.90;;;;;;5074467;28;20812;-49
2023/10/05 01:25:07;;;;;;;8.67;3.20;;;13.70;99.90;;;;;;5073715;28;20875;-48
2023/10/05 01:27:32;;;;;;;12.50;3.43;;;13.80;99.90;;;;;;5073861;28;20494;-47
2023/10/05 01:29:59;;;;;;;10.30;3.50;;;13.70;99.90;;;;;;5074354;28;20415;-48
2023/10/05 01:32:26;;;;;;;11.27;3.20;;;13.70;99.90;;;;;;5074358;28;20277;-47
2023/10/05 01:34:52;;;;;;;8.93;3.00;;;13.70;99.90;;;;;;5074167;28;20990;-47
2023/10/05 01:37:23;;;;;;;15.20;3.83;;;13.80;99.90;;;;;;5074031;28;20428;-47
2023/10/05 01:39:49;;;;;;;7.57;3.00;;;13.70;99.90;;;;;;5074009;28;20860;-48
2023/10/05 01:42:16;;;;;;;14.10;3.60;;;13.70;99.90;;;;;;5073725;28;20432;-48
2023/10/05 01:44:47;;;;;;;7.33;2.90;;;13.70;99.90;;;;;;5074016;28;20519;-48
2023/10/05 01:47:16;;;;;;;12.10;3.80;;;13.60;99.90;;;;;;5073980;28;20411;-47
2023/10/05 01:49:45;;;;;;;11.00;3.90;;;13.70;99.90;;;;;;5074114;28;20518;-48
2023/10/05 01:52:17;;;;;;;11.67;3.13;;;13.60;99.90;;;;;;5073833;28;20423;-47
2023/10/05 01:54:44;;;;;;;10.90;3.50;;;13.70;99.90;;;;;;5073981;28;20398;-47
2023/10/05 01:57:12;;;;;;;9.93;3.13;;;13.60;99.90;;;;;;5074159;28;20423;-47
2023/10/05 01:59:40;;;;;;;7.43;2.93;;;13.70;99.90;;;;;;5073801;28;20457;-47
2023/10/05 02:02:10;;;;;;;15.97;4.07;;;13.70;99.90;;;;;;5073955;28;20502;-48
2023/10/05 02:04:44;;;;;;;9.20;3.97;;;13.70;99.90;;;;;;5073766;28;20412;-47
2023/10/05 02:07:11;;;;;;;8.73;2.90;;;13.70;99.90;;;;;;5073801;28;20860;-47
2023/10/05 02:09:38;;;;;;;14.50;3.27;;;13.70;99.90;;;;;;5073827;28;20942;-47
2023/10/05 02:12:06;;;;;;;7.70;3.10;;;13.70;99.90;;;;;;5073763;28;20908;-48
2023/10/05 02:14:33;;;;;;;14.90;3.73;;;13.70;99.90;;;;;;5074079;28;20420;-47
2023/10/05 02:17:00;;;;;;;12.40;3.37;;;13.70;99.90;;;;;;5073581;28;20963;-47
2023/10/05 02:19:26;;;;;;;11.27;2.90;;;13.70;99.90;;;;;;5073722;28;20504;-48
2023/10/05 02:21:53;;;;;;;11.60;3.53;;;13.70;99.90;;;;;;5073726;28;20750;-48
2023/10/05 02:24:21;;;;;;;9.03;3.07;;;13.60;99.90;;;;;;5073292;28;20670;-47
2023/10/05 02:29:29;;;;;;;10.37;2.90;;;13.60;99.90;;;;;;5073879;28;20962;-47
2023/10/05 02:32:21;;;;;;;7.00;2.70;;;13.60;99.90;;;;;;5073711;28;20413;-47
2023/10/05 02:37:28;;;;;;;14.03;3.47;;;13.60;99.90;;;;;;5073950;28;20444;-47
2023/10/05 02:39:54;;;;;;;15.13;3.60;;;13.60;99.90;;;;;;5073391;28;20444;-47
2023/10/05 02:42:24;;;;;;;10.37;3.57;;;13.60;99.90;;;;;;5073070;28;20458;-48
2023/10/05 02:44:53;;;;;;;8.60;2.50;;;13.50;99.90;;;;;;5073466;28;20499;-47
2023/10/05 02:47:23;;;;;;;9.57;3.60;;;13.50;99.90;;;;;;5073335;28;20408;-47
2023/10/05 02:49:49;;;;;;;12.60;3.20;;;13.50;99.90;;;;;;5075748;28;20426;-47
2023/10/05 02:52:16;;;;;;;10.70;3.07;;;13.50;99.90;;;;;;5077170;28;20427;-47
2023/10/05 02:54:42;;;;;;;14.60;3.30;;;13.50;99.90;;;;;;5076823;28;20915;-49
2023/10/05 02:57:10;;;;;;;11.07;2.70;;;13.40;99.90;;;;;;5077082;28;20429;-47
2023/10/05 02:59:35;;;;;;;12.23;3.20;;;13.40;99.90;;;;;;5077044;28;20435;-47
2023/10/05 03:02:06;;;;;;;12.83;3.47;;;13.40;1.00;;;;;;5076734;28;20783;-47
2023/10/05 03:04:44;;;;;;;6.57;2.77;;;13.30;1.00;;;;;;5077035;28;20180;-47
2023/10/05 03:07:17;;;;;;;8.10;2.83;;;13.30;1.00;;;;;;5076856;28;20414;-47
2023/10/05 03:09:44;;;;;;;6.50;3.40;;;13.40;1.00;;;;;;5076699;28;20431;-47
2023/10/05 03:12:13;;;;;;;10.37;3.67;;;13.30;1.00;;;;;;5077066;28;20415;-48
2023/10/05 03:14:45;;;;;;;10.63;3.27;;;13.40;1.00;;;;;;5077131;28;20419;-47
2023/10/05 03:17:18;;;;;;;12.00;3.43;;;13.30;1.00;;;;;;5076961;28;20404;-48
2023/10/05 03:19:43;;;;;;;8.43;2.60;;;13.30;1.00;;;;;;5076165;28;20404;-48
2023/10/05 03:22:12;;;;;;;8.70;2.80;;;13.40;1.00;;;;;;5076102;28;20511;-48
2023/10/05 03:24:38;;;;;;;11.80;3.30;;;13.40;1.00;;;;;;5076368;28;20233;-47
2023/10/05 03:27:05;;;;;;;9.33;2.90;;;13.30;1.00;;;;;;5076517;28;20510;-47
2023/10/05 03:29:35;;;;;;;17.73;3.40;;;13.30;1.00;;;;;;5076774;28;20467;-47
2023/10/05 03:32:13;;;;;;;8.50;3.77;;;13.40;1.00;;;;;;5076776;28;20751;-48
2023/10/05 03:34:42;;;;;;;9.20;3.30;;;13.30;1.00;;;;;;5076823;28;20512;-48
2023/10/05 03:37:13;;;;;;;10.13;2.77;;;13.30;1.00;;;;;;5076610;28;20414;-47
2023/10/05 03:39:52;;;;;;;12.00;3.37;;;13.30;1.00;;;;;;5076414;28;20409;-47
2023/10/05 03:42:20;;;;;;;8.17;3.30;;;13.30;1.00;;;;;;5076377;28;20407;-48
2023/10/05 03:44:45;;;;;;;13.63;3.80;;;13.30;1.00;;;;;;5075983;28;20438;-47
2023/10/05 03:47:11;;;;;;;14.70;3.20;;;13.30;1.00;;;;;;5076107;28;20416;-47
2023/10/05 03:49:37;;;;;;;15.37;3.40;;;13.30;35.30;;;;;;5076606;28;20181;-47
2023/10/05 03:52:06;;;;;;;12.27;4.30;;;13.30;31.60;;;;;;5076321;28;20216;-48
2023/10/05 03:54:33;;;;;;;10.67;3.37;;;13.30;1.00;;;;;;5076070;28;20565;-47
2023/10/05 03:57:10;;;;;;;14.93;3.40;;;13.30;1.00;;;;;;5076225;28;20513;-47
2023/10/05 03:59:37;;;;;;;10.47;3.90;;;13.40;22.70;;;;;;5075968;28;20434;-47
2023/10/05 04:02:04;;;;;;;16.73;3.90;;;13.40;97.10;;;;;;5074947;28;20472;-47
2023/10/05 04:04:35;;;;;;;14.13;3.50;;;13.40;44.10;;;;;;5075573;28;20429;-47
2023/10/05 04:07:01;;;;;;;10.83;3.93;;;13.40;19.50;;;;;;5075818;28;20420;-47
2023/10/05 04:09:28;;;;;;;8.63;3.00;;;13.40;51.30;;;;;;5075673;28;20508;-47
2023/10/05 04:11:57;;;;;;;11.80;3.50;;;13.40;99.90;;;;;;5075946;28;20419;-47
2023/10/05 04:14:26;;;;;;;9.37;3.20;;;13.40;99.90;;;;;;5075285;28;20522;-47
2023/10/05 04:16:53;;;;;;;9.97;2.87;;;13.50;92.40;;;;;;5075588;28;20416;-48
2023/10/05 04:19:19;;;;;;;12.70;3.80;;;13.50;50.90;;;;;;5075519;28;20765;-47
2023/10/05 04:21:45;;;;;;;12.27;3.40;;;13.60;25.30;;;;;;5075342;28;20419;-47
2023/10/05 04:24:14;;;;;;;11.33;3.63;;;13.60;1.00;;;;;;5075148;28;20466;-47
2023/10/05 04:26:44;;;;;;;9.03;3.00;;;13.60;6.20;;;;;;5075842;28;20424;-47
2023/10/05 04:29:11;;;;;;;12.50;3.00;;;13.70;1.00;;;;;;5075622;28;20502;-48
2023/10/05 04:31:37;;;;;;;13.73;3.60;;;13.60;1.00;;;;;;5075426;28;20918;-48
2023/10/05 04:34:12;;;;;;;13.00;4.63;;;13.70;1.00;;;;;;5075570;28;20435;-48
2023/10/05 04:36:38;;;;;;;12.60;3.73;;;13.70;1.00;;;;;;5075698;28;20191;-47
2023/10/05 04:39:05;;;;;;;17.17;3.20;;;13.70;1.00;;;;;;5075390;28;20412;-49
2023/10/05 04:41:38;;;;;;;15.67;3.57;;;13.70;1.00;;;;;;5075339;28;20412;-47
2023/10/05 04:44:06;;;;;;;14.73;3.90;;;13.70;1.00;;;;;;5074875;28;20409;-47
2023/10/05 04:46:32;;;;;;;7.93;3.23;;;13.70;1.00;;;;;;5075481;28;20416;-47
2023/10/05 04:49:08;;;;;;;10.97;3.10;;;13.70;1.00;;;;;;5075138;28;20506;-48
2023/10/05 04:51:37;;;;;;;10.27;3.03;;;13.80;1.00;;;;;;5075485;28;20184;-47
2023/10/05 04:54:03;;;;;;;12.90;2.93;;;13.80;1.00;;;;;;5074926;28;20416;-48
2023/10/05 04:56:43;;;;;;;18.33;3.50;;;13.80;1.00;;;;;;5075218;28;20748;-47
2023/10/05 05:07:09;;;;;;;10.83;3.77;;;13.90;99.90;;;;;;5075074;28;20466;-47
2023/10/05 05:09:39;;;;;;;14.40;4.30;;;13.90;1.00;;;;;;5074743;28;20472;-46
2023/10/05 05:12:19;;;;;;;10.23;3.67;;;13.80;99.10;;;;;;5074198;28;20481;-46
2023/10/05 05:14:49;;;;;;;14.10;3.60;;;13.70;1.00;;;;;;5074720;28;20838;-46
2023/10/05 05:17:19;;;;;;;8.23;3.40;;;13.70;99.90;;;;;;5074568;28;20777;-46
2023/10/05 05:19:46;;;;;;;15.93;4.03;;;13.70;1.00;;;;;;5074659;28;20439;-46
2023/10/05 05:22:13;;;;;;;10.80;3.40;;;13.60;99.90;;;;;;5074536;28;20503;-46
2023/10/05 05:24:39;;;;;;;18.43;4.07;;;13.70;99.90;;;;;;5074051;28;20499;-46
2023/10/05 05:29:44;;;;;;;11.27;3.47;;;13.60;99.90;;;;;;5074808;28;20462;-46
2023/10/05 05:32:10;;;;;;;18.20;3.40;;;13.60;1.00;;;;;;5074461;28;20408;-48
2023/10/05 05:34:41;;;;;;;10.53;3.40;;;13.50;1.00;;;;;;5074472;28;20416;-46
2023/10/05 05:37:25;;;;;;;18.87;3.50;;;13.60;99.90;;;;;;5074137;28;20316;-47
2023/10/05 05:39:55;;;;;;;9.73;3.70;;;13.60;99.90;;;;;;5073986;28;20897;-47
2023/10/05 05:42:25;;;;;;;16.00;3.97;;;13.60;1.00;;;;;;5074369;28;20419;-46
2023/10/05 05:44:52;;;;;;;19.37;4.80;;;13.60;99.90;;;;;;5073800;28;20786;-48
2023/10/05 05:47:18;;;;;;;15.10;4.47;;;13.60;99.90;;;;;;5073569;28;20808;-47
2023/10/05 05:49:47;;;;;;;13.40;4.50;;;13.60;1.00;;;;;;5074034;28;20474;-47
2023/10/05 05:52:14;;;;;;;9.07;3.90;;;13.60;1.00;;;;;;5073822;28;20272;-46
2023/10/05 05:54:41;;;;;;;10.17;3.70;;;13.60;1.00;;;;;;5074000;28;20438;-46
2023/10/05 05:57:07;;;;;;;10.90;3.40;;;13.60;1.00;;;;;;5073586;28;20456;-46
2023/10/05 05:59:38;;;;;;;15.00;4.50;;;13.60;1.00;;;;;;5073912;28;20426;-46
2023/10/05 06:02:06;;;;;;;11.77;4.37;;;13.60;1.00;;;;;;5074135;28;20431;-46
2023/10/05 06:04:32;;;;;;;13.83;4.40;;;13.60;1.00;;;;;;5074132;28;20416;-46
2023/10/05 06:06:59;;;;;;;12.30;4.30;;;13.60;99.90;;;;;;5073612;28;20407;-47
2023/10/05 06:09:27;;;;;;;11.60;3.80;;;13.60;99.90;;;;;;5074046;28;20495;-46
2023/10/05 06:11:53;;;;;;;18.33;4.63;;;13.60;99.90;;;;;;5073631;28;20420;-47
2023/10/05 06:14:19;;;;;;;14.63;3.87;;;13.60;1.00;;;;;;5073820;28;20472;-46
2023/10/05 06:16:45;;;;;;;14.20;4.20;;;13.60;99.90;;;;;;5073504;28;20897;-48
2023/10/05 06:19:11;;;;;;;10.53;3.70;;;13.50;99.90;;;;;;5073620;28;20235;-46
2023/10/05 06:21:37;;;;;;;15.70;4.40;;;13.50;1.00;;;;;;5073665;28;20507;-46
2023/10/05 06:24:03;;;;;;;17.83;4.20;;;13.50;99.90;;;;;;5075251;28;20561;-47
2023/10/05 06:26:30;;;;;;;10.17;4.20;;;13.50;1.00;;;;;;5078093;28;20197;-47
2023/10/05 06:28:56;;;;;;;12.57;4.13;;;13.50;1.00;;;;;;5077969;28;20474;-46
2023/10/05 06:31:22;;;;;;;16.50;4.40;;;13.40;1.00;;;;;;5077642;28;20430;-47
2023/10/05 06:33:48;;;;;;;17.23;4.20;;;13.50;28.00;;;;;;5077247;28;20415;-46
2023/10/05 06:36:13;;;;;;;18.40;5.23;;;13.40;81.30;;;;;;5077658;28;20435;-47
2023/10/05 06:38:39;;;;;;;17.00;5.20;;;13.40;99.90;;;;;;5077326;28;20188;-45
2023/10/05 06:41:05;;;;;;;13.77;4.60;;;13.40;99.90;;;;;;5077157;28;20177;-47
2023/10/05 06:43:35;;;;;;;16.50;4.63;;;13.40;99.90;;;;;;5077221;28;20177;-47
2023/10/05 06:46:09;;;;;;;13.93;4.37;;;13.50;99.90;;;;;;5077202;28;20221;-47
2023/10/05 06:48:36;;;;;;;15.47;4.63;;;13.40;99.90;;;;;;5077381;28;20451;-47
2023/10/05 06:51:02;;;;;;;14.97;4.70;;;13.40;99.90;;;;;;5077523;28;20797;-47
2023/10/05 06:53:28;;;;;;;13.53;4.57;;;13.40;99.90;;;;;;5077255;28;20507;-47
2023/10/05 06:55:54;;;;;;;13.03;4.37;;;13.40;99.90;;;;;;5077312;28;20934;-47
2023/10/05 06:58:20;;;;;;;18.73;5.17;;;13.30;99.90;;;;;;5076778;28;20189;-46
2023/10/05 07:00:45;;;;;;;14.00;5.30;;;13.30;99.90;;;;;;5076762;28;20185;-47
2023/10/05 07:03:11;;;;;;;13.00;5.50;;;13.30;99.90;;;;;;5076361;28;20189;-47
2023/10/05 07:05:37;;;;;;;11.83;4.63;;;13.30;99.90;;;;;;5076961;28;20273;-46
2023/10/05 07:08:03;;;;;;;10.70;4.57;;;13.30;99.90;;;;;;5076575;28;20247;-47
2023/10/05 07:10:29;;;;;;;8.77;4.90;;;13.30;99.90;;;;;;5076904;28;20201;-46
2023/10/05 07:12:55;;;;;;;9.73;4.37;;;13.30;99.90;;;;;;5076615;28;20422;-46
2023/10/05 07:15:23;;;;;;;13.20;4.53;;;13.30;99.90;;;;;;5076930;28;20416;-46
2023/10/05 07:17:50;;;;;;;7.20;3.70;;;13.30;99.90;;;;;;5076484;28;20637;-46
2023/10/05 07:20:16;;;;;;;7.07;3.73;;;13.30;99.90;;;;;;5076720;28;20561;-46
2023/10/05 07:22:43;;;;;;;17.30;3.97;;;13.40;99.90;;;;;;5076809;28;20427;-46
2023/10/05 07:25:13;;;;;;;7.20;3.30;;;13.30;99.90;;;;;;5076519;28;20466;-46
2023/10/05 07:27:41;;;;;;;7.23;4.10;;;13.30;99.90;;;;;;5076642;28;20468;-46
2023/10/05 07:30:10;;;;;;;5.77;3.30;;;13.30;99.90;;;;;;5076327;28;20420;-47
2023/10/05 07:32:37;;;;;;;6.33;3.37;;;13.30;99.90;;;;;;5076745;28;21109;-47
2023/10/05 07:35:07;;;;;;;7.00;3.40;;;13.30;99.90;;;;;;5076245;28;20435;-47
2023/10/05 07:37:34;;;;;;;6.03;3.33;;;13.30;99.90;;;;;;5076433;28;20443;-47
2023/10/05 07:40:00;;;;;;;5.70;2.93;;;13.30;99.90;;;;;;5076042;28;20833;-47
2023/10/05 07:42:28;;;;;;;8.67;2.80;;;13.40;99.90;;;;;;5076306;28;20412;-47
2023/10/05 07:44:54;;;;;;;6.27;2.30;;;13.40;99.90;;;;;;5076490;28;20412;-46
2023/10/05 07:47:20;;;;;;;5.03;2.40;;;13.40;99.90;;;;;;5076441;28;20408;-47
2023/10/05 07:49:46;;;;;;;4.47;2.43;;;13.40;99.90;;;;;;5076024;28;20558;-47
2023/10/05 07:52:11;;;;;;;5.43;2.33;;;13.40;99.90;;;;;;5076452;28;20422;-47
2023/10/05 07:54:38;;;;;;;4.53;3.00;;;13.50;99.90;;;;;;5076565;28;20185;-47
2023/10/05 07:57:09;;;;;;;4.93;2.90;;;13.40;99.90;;;;;;5076060;28;20239;-47
2023/10/05 07:59:36;;;;;;;5.70;2.70;;;13.50;99.90;;;;;;5075774;28;20857;-47
2023/10/05 08:02:02;;;;;;;5.50;2.47;;;13.50;99.90;;;;;;5075753;28;20499;-46
2023/10/05 08:04:28;;;;;;;5.37;2.97;;;13.50;99.90;;;;;;5076369;28;20454;-48
2023/10/05 08:06:54;;;;;;;4.97;2.70;;;13.60;99.90;;;;;;5075715;28;20991;-46
2023/10/05 08:09:23;;;;;;;4.50;2.53;;;13.60;99.90;;;;;;5076071;28;20597;-47
2023/10/05 08:11:50;;;;;;;4.43;2.20;;;13.70;99.90;;;;;;5075991;28;20231;-47
2023/10/05 08:14:21;;;;;;;4.80;2.00;;;13.60;99.90;;;;;;5076038;28;20439;-47
2023/10/05 08:16:50;;;;;;;4.17;2.10;;;13.70;99.90;;;;;;5075662;28;20804;-46
2023/10/05 08:19:16;;;;;;;4.27;2.63;;;13.80;99.90;;;;;;5075376;28;20988;-47
2023/10/05 08:21:42;;;;;;;5.07;2.33;;;13.80;99.90;;;;;;5075686;28;20420;-47
2023/10/05 08:24:08;;;;;;;4.00;2.80;;;13.80;99.90;;;;;;5075334;28;20321;-47
2023/10/05 08:26:34;;;;;;;2.17;1.90;;;13.80;99.90;;;;;;5075721;28;20427;-47
2023/10/05 08:29:01;;;;;;;4.47;2.30;;;13.90;99.90;;;;;;5075610;28;20460;-47
2023/10/05 08:31:27;;;;;;;1.80;1.70;;;13.90;99.90;;;;;;5075331;28;20510;-47
2023/10/05 08:33:53;;;;;;;5.03;1.57;;;14.00;99.90;;;;;;5075048;28;20421;-47
2023/10/05 08:36:19;;;;;;;6.80;1.60;;;14.00;99.90;;;;;;5074993;28;20841;-47
2023/10/05 08:38:48;;;;;;;3.33;1.67;;;14.10;99.90;;;;;;5075250;28;20448;-47
2023/10/05 08:41:41;;;;;;;2.43;1.70;;;14.20;99.90;;;;;;5075007;28;20462;-47
2023/10/05 08:44:26;;;;;;;7.07;1.37;;;14.40;99.90;;;;;;5070438;28;20439;-47
2023/10/05 08:46:52;;;;;;;1.67;1.40;;;14.40;99.90;;;;;;5074664;28;20406;-47
2023/10/05 08:49:18;;;;;;;3.03;1.17;;;14.40;99.90;;;;;;5075293;28;20857;-47
2023/10/05 08:51:44;;;;;;;4.57;1.50;;;14.50;99.90;;;;;;5075091;28;20495;-47
2023/10/05 08:54:12;;;;;;;1.43;1.20;;;14.50;99.90;;;;;;5074633;28;20599;-47
2023/10/05 08:56:45;;;;;;;4.77;1.27;;;14.60;99.90;;;;;;5075115;28;20462;-47
2023/10/05 08:59:19;;;;;;;4.90;1.40;;;14.60;99.90;;;;;;5074572;28;20445;-47
2023/10/05 09:01:46;;;;;;;2.60;1.37;;;14.60;99.90;;;;;;5074524;28;20784;-47
2023/10/05 09:06:55;;;;;;;3.33;1.20;;;14.50;99.90;;;;;;5074863;28;20434;-47
2023/10/05 09:09:38;;;;;;;3.27;1.27;;;14.50;99.90;;;;;;5074946;28;20810;-48
2023/10/05 09:12:34;;;;;;;1.40;1.30;;;14.50;99.90;;;;;;5074900;28;20860;-47
2023/10/05 09:20:33;;;;;;;3.97;1.77;;;14.70;99.90;;;;;;5074578;28;20407;-48
2023/10/05 09:23:04;;;;;;;4.97;1.60;;;14.80;99.90;;;;;;5074575;28;20420;-48
2023/10/05 09:25:44;;;;;;;1.93;1.10;;;15.00;99.90;;;;;;5074883;28;20798;-51
2023/10/05 09:28:16;;;;;;;5.43;1.57;;;15.30;99.90;;;;;;5074508;28;20464;-48
2023/10/05 09:30:59;;;;;;;1.80;1.30;;;15.40;99.90;;;;;;5074793;28;20463;-47
2023/10/05 09:33:27;;;;;;;4.20;1.10;;;15.80;99.90;;;;;;5074338;28;20949;-49
2023/10/05 09:36:06;;;;;;;4.07;1.20;;;16.30;99.90;;;;;;5074368;28;20417;-49
2023/10/05 09:38:35;;;;;;;2.13;1.00;;;16.70;17.10;;;;;;5074230;28;20454;-48
2023/10/05 09:41:02;;;;;;;3.10;1.10;;;16.80;1.00;;;;;;5074095;28;20470;-47
2023/10/05 09:43:32;;;;;;;4.40;1.30;;;16.80;99.90;;;;;;5074085;28;20423;-48
2023/10/05 09:45:58;;;;;;;2.37;1.57;;;16.70;99.90;;;;;;5074529;28;20432;-48
2023/10/05 09:48:24;;;;;;;2.83;1.20;;;16.50;99.90;;;;;;5074302;28;20456;-48
2023/10/05 09:50:52;;;;;;;5.07;1.37;;;16.60;99.90;;;;;;5073772;28;20421;-49
2023/10/05 09:53:19;;;;;;;1.83;1.30;;;16.50;99.90;;;;;;5074023;28;20422;-48
2023/10/05 09:55:53;;;;;;;3.53;1.30;;;16.60;99.90;;;;;;5073930;28;20425;-48
2023/10/05 09:58:20;;;;;;;3.37;1.67;;;16.60;99.90;;;;;;5073127;28;20413;-49
2023/10/05 10:03:13;;;;;;;7.53;1.77;;;16.70;99.90;;;;;;5073961;28;20417;-48
2023/10/05 10:05:44;;;;;;;4.97;1.67;;;16.80;99.90;;;;;;5073928;28;20428;-51
2023/10/05 10:08:20;;;;;;;9.10;2.07;;;16.90;99.90;;;;;;5074058;28;20457;-48
2023/10/05 10:10:51;;;;;;;8.23;2.03;;;17.10;12.50;;;;;;5073864;28;20394;-47
2023/10/05 10:13:21;;;;;;;4.40;1.60;;;17.30;1.00;;;;;;5073954;28;20419;-48
2023/10/05 10:15:53;;;;;;;9.40;2.00;;;17.50;99.90;;;;;;5073775;28;20441;-48
2023/10/05 10:18:30;;;;;;;8.43;2.13;;;17.50;99.90;;;;;;5073445;28;20401;-48
2023/10/05 10:20:57;;;;;;;8.00;2.20;;;17.40;1.00;;;;;;5073747;28;20416;-49
2023/10/05 10:23:35;;;;;;;7.50;2.70;;;17.60;1.00;;;;;;5073525;28;20445;-47
2023/10/05 10:26:16;;;;;;;9.10;2.40;;;18.10;99.90;;;;;;5073838;28;20824;-48
2023/10/05 10:31:19;;;;;;;11.60;2.30;;;19.30;89.10;;;;;;5073582;28;20412;-48
2023/10/05 10:33:51;;;;;;;8.93;1.80;;;19.80;1.00;;;;;;5073473;28;20719;-47
2023/10/05 10:36:46;;;;;;;8.10;2.00;;;19.80;1.00;;;;;;5073910;28;20412;-49
2023/10/05 10:39:27;;;;;;;11.23;1.97;;;20.10;1.00;;;;;;5073648;28;20435;-48
2023/10/05 10:42:30;;;;;;;8.97;1.93;;;19.70;1.00;;;;;;5073722;28;20956;-50
2023/10/05 10:47:15;;;;;;;7.93;2.37;;;19.30;1.00;;;;;;5073021;28;20514;-49
2023/10/05 10:49:59;;;;;;;7.07;1.77;;;19.30;1.00;;;;;;5073462;28;20226;-50
2023/10/05 10:52:25;;;;;;;10.97;2.10;;;19.20;1.00;;;;;;5073769;28;20408;-48
2023/10/05 10:54:57;;;;;;;8.63;2.00;;;18.80;1.00;;;;;;5073367;28;20415;-49
2023/10/05 10:57:23;;;;;;;9.43;2.03;;;18.50;1.00;;;;;;5073150;28;20410;-49
2023/10/05 11:00:37;;;;;;;9.23;2.50;;;18.00;1.00;;;;;;5073221;28;20418;-51
2023/10/05 11:02:38;;;;;;;9.77;2.23;;;17.90;24.40;;;;;;5073162;28;20200;-49
2023/10/05 11:05:05;;;;;;;9.13;2.13;;;18.00;31.50;;;;;;5073432;28;20408;-49
2023/10/05 11:07:34;;;;;;;7.97;2.00;;;17.90;1.00;;;;;;5073413;28;20521;-50
2023/10/05 11:10:02;;;;;;;11.53;2.00;;;17.50;1.00;;;;;;5074424;28;20467;-49
2023/10/05 11:12:29;;;;;;;7.30;2.10;;;18.00;4.30;;;;;;5076978;28;20445;-49
2023/10/05 11:15:11;;;;;;;7.60;2.17;;;19.40;1.00;;;;;;5077004;28;20546;-49
2023/10/05 11:17:36;;;;;;;7.97;1.87;;;21.00;1.00;;;;;;5076980;28;20804;-48
2023/10/05 11:20:20;;;;;;;6.97;2.27;;;22.60;1.00;;;;;;5076664;28;20409;-49
2023/10/05 11:22:46;;;;;;;9.37;2.00;;;23.50;1.00;;;;;;5076908;28;20174;-49
2023/10/05 11:25:15;;;;;;;7.40;2.03;;;23.80;1.00;;;;;;5076396;28;20971;-50
2023/10/05 11:27:48;;;;;;;7.77;2.43;;;24.00;1.00;;;;;;5076503;28;20232;-49
2023/10/05 11:30:21;;;;;;;7.90;2.43;;;24.10;1.00;;;;;;5076263;28;20881;-49
2023/10/05 11:32:54;;;;;;;5.10;1.80;;;24.20;1.00;;;;;;5076261;28;20881;-49
2023/10/05 11:35:28;;;;;;;9.40;1.97;;;24.60;1.00;;;;;;5076550;28;20404;-49
2023/10/05 11:38:05;;;;;;;9.87;2.07;;;24.70;1.00;;;;;;5076293;28;20737;-48
2023/10/05 11:40:58;;;;;;;7.77;1.87;;;25.40;1.00;;;;;;5076719;28;20416;-47
2023/10/05 11:43:23;;;;;;;6.17;1.67;;;25.70;1.00;;;;;;5076950;28;20423;-47
2023/10/05 11:45:55;;;;;;;10.40;2.53;;;26.40;1.00;;;;;;5076363;28;20497;-47
2023/10/05 11:48:22;;;;;;;7.80;1.63;;;26.50;1.00;;;;;;5075869;28;20214;-47
2023/10/05 11:50:51;;;;;;;6.80;2.00;;;26.60;1.00;;;;;;5075777;28;20449;-47
2023/10/05 11:53:20;;;;;;;4.97;1.60;;;26.60;1.00;;;;;;5075994;28;20420;-49
2023/10/05 11:55:49;;;;;;;7.80;2.00;;;26.20;1.00;;;;;;5076028;28;20413;-48
2023/10/05 11:58:18;;;;;;;9.70;1.97;;;26.30;1.00;;;;;;5076373;28;20757;-50
2023/10/05 12:00:44;;;;;;;12.07;2.27;;;26.00;1.00;;;;;;5076005;28;20451;-48
2023/10/05 12:03:11;;;;;;;5.90;1.83;;;26.40;1.00;;;;;;5076005;28;20443;-49
2023/10/05 12:05:38;;;;;;;6.40;1.53;;;26.50;1.00;;;;;;5074229;28;20269;-48
2023/10/05 12:08:05;;;;;;;6.93;2.07;;;26.60;1.00;;;;;;5075789;28;20567;-49
2023/10/05 12:10:32;;;;;;;6.90;1.57;;;26.50;99.90;;;;;;5075558;28;20396;-49
2023/10/05 12:13:01;;;;;;;7.03;1.93;;;26.20;1.00;;;;;;5075708;28;20570;-50
2023/10/05 12:15:28;;;;;;;5.20;1.53;;;26.10;1.00;;;;;;5075705;28;20790;-48
2023/10/05 12:17:54;;;;;;;5.17;1.50;;;25.50;99.90;;;;;;5075881;28;20482;-48
2023/10/05 12:20:21;;;;;;;3.80;1.60;;;25.50;99.90;;;;;;5075949;28;20876;-48
2023/10/05 12:22:49;;;;;;;4.57;1.33;;;25.50;99.90;;;;;;5074708;28;20265;-49
2023/10/05 12:25:16;;;;;;;5.10;1.77;;;25.10;99.90;;;;;;5075061;28;20563;-49
2023/10/05 12:27:42;;;;;;;5.87;1.67;;;24.80;1.00;;;;;;5075373;28;20415;-49
2023/10/05 12:30:15;;;;;;;6.93;1.97;;;24.70;99.90;;;;;;5075705;28;20420;-49
2023/10/05 12:32:41;;;;;;;4.70;1.40;;;25.00;99.90;;;;;;5075861;28;20189;-51
2023/10/05 12:35:13;;;;;;;4.97;1.63;;;24.70;99.90;;;;;;5075504;28;20432;-48
2023/10/05 12:37:44;;;;;;;5.87;1.80;;;24.60;99.90;;;;;;5075453;28;20413;-49
2023/10/05 12:40:25;;;;;;;7.53;1.50;;;24.70;99.90;;;;;;5075502;28;20423;-50
2023/10/05 12:42:51;;;;;;;7.20;1.97;;;25.20;1.00;;;;;;5075450;28;20408;-49
2023/10/05 12:45:21;;;;;;;7.60;1.50;;;25.70;99.90;;;;;;5075482;28;20745;-49
2023/10/05 12:47:54;;;;;;;4.87;1.57;;;25.30;99.90;;;;;;5075286;28;20520;-51
2023/10/05 12:50:22;;;;;;;5.50;1.73;;;25.60;99.90;;;;;;5075320;28;20405;-49
2023/10/05 12:52:51;;;;;;;8.37;1.87;;;25.40;99.90;;;;;;5075019;28;20423;-49
2023/10/05 12:55:26;;;;;;;10.70;1.60;;;25.50;99.90;;;;;;5075156;28;20514;-50
2023/10/05 12:57:53;;;;;;;6.93;1.70;;;24.90;1.00;;;;;;5075077;28;20798;-49
2023/10/05 13:00:19;;;;;;;7.20;1.60;;;25.40;99.90;;;;;;5074807;28;20414;-49
2023/10/05 13:03:00;;;;;;;6.10;1.80;;;26.00;99.90;;;;;;5074414;28;20885;-49
2023/10/05 13:05:31;;;;;;;4.47;1.50;;;26.60;99.90;;;;;;5074701;28;20421;-47
2023/10/05 13:08:01;;;;;;;6.30;2.20;;;26.80;99.90;;;;;;5074327;28;20862;-49
2023/10/05 13:10:30;;;;;;;8.13;1.60;;;25.90;99.90;;;;;;5074647;28;20423;-49
2023/10/05 13:13:00;;;;;;;8.60;1.60;;;25.30;99.90;;;;;;5074457;28;20428;-49
2023/10/05 13:15:32;;;;;;;5.87;1.57;;;25.40;99.90;;;;;;5074849;28;20404;-49
2023/10/05 13:18:19;;;;;;;10.00;1.97;;;25.30;99.90;;;;;;5074737;28;20412;-50
2023/10/05 13:20:49;;;;;;;6.87;1.63;;;25.30;99.90;;;;;;5074346;28;20411;-49
2023/10/05 13:23:18;;;;;;;4.63;1.90;;;25.30;99.90;;;;;;5074467;28;20809;-49
2023/10/05 13:25:48;;;;;;;7.40;1.50;;;24.90;99.90;;;;;;5074163;28;20896;-49
2023/10/05 13:28:16;;;;;;;4.17;1.33;;;25.10;99.90;;;;;;5073853;28;20952;-49
2023/10/05 13:30:50;;;;;;;6.03;1.53;;;25.30;99.90;;;;;;5074396;28;20504;-51
2023/10/05 13:33:54;;;;;;;5.97;1.57;;;25.30;99.90;;;;;;5074218;28;20503;-50
2023/10/05 13:36:12;;;;;;;3.43;1.67;;;24.90;99.90;;;;;;5072846;28;20424;-49